Time;durP1;ratioP1;P1;durP2;ratioP2;P2;SDS_P1;SDS_P2;PMS_P1;PMS_P2;Temp;Humidity;BMP_temperature;BMP_pressure;BME280_temperature;BME280_humidity;BME280_pressure;Samples;Min_cycle;Max_cycle;Signal;HPM_P1;HPM_P2
2023/01/08 00:02:03;;;;;;;47.50;27.02;;;12.20;90.30;;;;;;6337945;22;20066;-70
2023/01/08 00:04:29;;;;;;;42.80;26.23;;;12.10;90.30;;;;;;6338534;22;20003;-70
2023/01/08 00:06:55;;;;;;;43.13;24.75;;;12.10;90.30;;;;;;6311673;22;20025;-70
2023/01/08 00:09:20;;;;;;;43.55;25.55;;;12.10;90.30;;;;;;6339162;22;20006;-70
2023/01/08 00:11:48;;;;;;;46.40;27.33;;;12.10;90.40;;;;;;6340232;22;20092;-70
2023/01/08 00:14:15;;;;;;;45.63;26.55;;;12.10;90.40;;;;;;6340368;22;20583;-70
2023/01/08 00:16:40;;;;;;;42.70;25.60;;;12.10;90.40;;;;;;6340012;22;20086;-70
2023/01/08 00:19:06;;;;;;;42.22;25.35;;;12.20;90.40;;;;;;6339523;22;20022;-70
2023/01/08 00:21:32;;;;;;;43.08;24.13;;;12.10;90.40;;;;;;6339699;22;20006;-70
2023/01/08 00:23:57;;;;;;;43.00;25.98;;;12.10;90.40;;;;;;6312506;22;20055;-70
2023/01/08 00:26:25;;;;;;;43.05;26.27;;;12.20;90.40;;;;;;6339871;22;19999;-70
2023/01/08 00:28:50;;;;;;;40.83;26.58;;;12.10;90.30;;;;;;6339609;22;20002;-70
2023/01/08 00:31:16;;;;;;;44.22;25.13;;;12.10;90.30;;;;;;6339930;22;19999;-70
2023/01/08 00:33:41;;;;;;;42.63;25.83;;;12.20;90.30;;;;;;6340026;22;19998;-70
2023/01/08 00:36:09;;;;;;;47.75;26.25;;;12.10;90.30;;;;;;6339839;22;20075;-70
2023/01/08 00:38:36;;;;;;;36.88;24.45;;;12.10;90.30;;;;;;6340105;22;20002;-70
2023/01/08 00:41:02;;;;;;;38.08;24.67;;;12.10;90.30;;;;;;6340010;22;20003;-70
2023/01/08 00:43:28;;;;;;;43.47;27.02;;;12.10;90.30;;;;;;6339468;22;20019;-70
2023/01/08 00:45:53;;;;;;;43.53;25.58;;;12.10;90.40;;;;;;6339171;22;20378;-70
2023/01/08 00:48:23;;;;;;;43.42;25.58;;;12.20;90.40;;;;;;6339903;22;19995;-70
2023/01/08 00:50:50;;;;;;;42.17;27.10;;;12.10;90.30;;;;;;6311930;22;20362;-70
2023/01/08 00:53:22;;;;;;;42.28;26.55;;;12.10;90.30;;;;;;6338972;22;20006;-70
2023/01/08 00:55:48;;;;;;;44.40;25.77;;;12.20;90.40;;;;;;6311844;22;20013;-70
2023/01/08 00:58:14;;;;;;;40.85;24.75;;;12.20;90.50;;;;;;6312141;22;20034;-70
2023/01/08 01:00:40;;;;;;;40.30;24.75;;;12.10;90.50;;;;;;6339656;22;20003;-70
2023/01/08 01:03:06;;;;;;;46.63;27.25;;;12.10;90.50;;;;;;6339765;22;19999;-70
2023/01/08 01:05:32;;;;;;;41.08;25.42;;;12.10;90.60;;;;;;6339917;22;19995;-70
2023/01/08 01:07:57;;;;;;;41.15;25.83;;;12.10;90.60;;;;;;6339112;22;20070;-70
2023/01/08 01:10:23;;;;;;;42.53;26.02;;;12.10;90.50;;;;;;6339626;22;20003;-70
2023/01/08 01:12:49;;;;;;;42.08;24.90;;;12.10;90.40;;;;;;6339559;22;20052;-70
2023/01/08 01:15:18;;;;;;;43.55;26.92;;;12.10;90.40;;;;;;6339480;22;20049;-70
2023/01/08 01:17:45;;;;;;;39.55;25.80;;;12.20;90.50;;;;;;6311355;22;20003;-70
2023/01/08 01:20:13;;;;;;;41.63;25.80;;;12.10;90.40;;;;;;6339855;22;20452;-70
2023/01/08 01:22:39;;;;;;;40.40;26.08;;;12.10;90.50;;;;;;6312688;22;20034;-70
2023/01/08 01:25:06;;;;;;;44.13;25.83;;;12.10;90.50;;;;;;6312067;22;20021;-70
2023/01/08 01:27:32;;;;;;;43.08;25.55;;;12.10;90.70;;;;;;6339645;22;20026;-70
2023/01/08 01:29:57;;;;;;;44.05;26.73;;;12.20;90.50;;;;;;6339765;22;20104;-70
2023/01/08 01:32:23;;;;;;;41.42;24.48;;;12.10;90.50;;;;;;6339606;22;20026;-70
2023/01/08 01:34:49;;;;;;;40.38;25.17;;;12.10;90.50;;;;;;6339672;22;20079;-70
2023/01/08 01:37:15;;;;;;;42.33;26.33;;;12.10;90.40;;;;;;6311926;22;20006;-70
2023/01/08 01:39:45;;;;;;;42.70;25.52;;;12.10;90.40;;;;;;6339643;22;20000;-70
2023/01/08 01:42:38;;;;;;;;;;;12.20;90.30;;;;;;6339762;22;20057;-70
2023/01/08 01:45:26;;;;;;;39.50;22.90;;;12.20;90.30;;;;;;6339275;22;20001;-79
2023/01/08 01:48:09;;;;;;;41.67;24.92;;;12.20;90.30;;;;;;6323536;22;20492;-78
2023/01/08 01:50:55;;;;;;;43.72;25.48;;;12.10;90.30;;;;;;6339120;22;20447;-78
2023/01/08 01:53:31;;;;;;;41.05;25.20;;;12.10;90.40;;;;;;6339113;22;20018;-79
2023/01/08 01:55:58;;;;;;;46.75;26.27;;;12.10;90.40;;;;;;6339524;22;20006;-79
2023/01/08 01:58:27;;;;;;;42.83;25.58;;;12.10;90.40;;;;;;6339196;22;20085;-79
2023/01/08 02:00:55;;;;;;;38.88;24.10;;;12.10;90.40;;;;;;6338300;22;20078;-79
2023/01/08 02:03:24;;;;;;;39.70;24.95;;;12.10;90.40;;;;;;6338356;22;20006;-79
2023/01/08 02:06:12;;;;;;;43.20;26.50;;;12.10;90.40;;;;;;6338779;22;20031;-78
2023/01/08 02:08:37;;;;;;;45.65;26.35;;;12.10;90.50;;;;;;6339059;22;20005;-78
2023/01/08 02:11:13;;;;;;;46.03;26.65;;;12.10;90.50;;;;;;6339511;22;20338;-78
2023/01/08 02:13:42;;;;;;;42.20;25.40;;;12.10;90.40;;;;;;6338547;22;20071;-78
2023/01/08 02:16:28;;;;;;;39.40;24.75;;;12.10;90.50;;;;;;6338592;22;20049;-78
2023/01/08 02:19:02;;;;;;;40.70;23.95;;;12.10;90.40;;;;;;6339211;22;20413;-79
2023/01/08 02:21:40;;;;;;;41.15;23.75;;;12.10;90.40;;;;;;6339049;22;19998;-78
2023/01/08 02:24:19;;;;;;;40.67;25.67;;;12.10;90.40;;;;;;6338659;22;20026;-78
2023/01/08 02:26:47;;;;;;;40.53;25.02;;;12.10;90.40;;;;;;6338592;22;19999;-79
2023/01/08 02:29:20;;;;;;;40.08;24.17;;;12.10;90.40;;;;;;6311049;22;20365;-78
2023/01/08 02:31:46;;;;;;;40.05;25.67;;;12.10;90.40;;;;;;6338552;22;20102;-78
2023/01/08 02:34:12;;;;;;;37.28;23.95;;;12.10;90.40;;;;;;6338558;22;20003;-78
2023/01/08 02:36:49;;;;;;;42.28;24.75;;;12.10;90.30;;;;;;6338852;22;20026;-78
2023/01/08 02:39:47;;;;;;;41.83;25.42;;;12.10;90.30;;;;;;6338114;22;20038;-78
2023/01/08 02:42:28;;;;;;;41.90;24.52;;;12.10;90.20;;;;;;6339216;22;20007;-78
2023/01/08 02:45:24;;;;;;;38.45;23.98;;;12.10;90.10;;;;;;6339297;22;20005;-77
2023/01/08 02:48:12;;;;;;;35.65;23.00;;;12.10;90.10;;;;;;6339240;22;20066;-78
2023/01/08 02:51:12;;;;;;;40.88;25.38;;;12.20;90.00;;;;;;6338623;22;19998;-78
2023/01/08 02:53:44;;;;;;;41.03;23.73;;;12.10;90.00;;;;;;6338467;22;20026;-79
2023/01/08 02:56:40;;;;;;;40.47;23.80;;;12.20;90.10;;;;;;6339014;22;19998;-79
2023/01/08 02:59:07;;;;;;;44.17;26.20;;;12.20;90.10;;;;;;6336086;22;20015;-78
2023/01/08 03:01:33;;;;;;;41.17;25.30;;;12.10;90.20;;;;;;6338549;22;20291;-79
2023/01/08 03:04:05;;;;;;;37.35;23.17;;;12.10;90.20;;;;;;6338366;22;20051;-78
2023/01/08 03:06:31;;;;;;;37.78;24.30;;;12.10;90.30;;;;;;6338713;22;20403;-79
2023/01/08 03:08:59;;;;;;;40.10;23.88;;;12.10;90.40;;;;;;6310944;22;20083;-79
2023/01/08 03:11:31;;;;;;;41.30;25.05;;;12.10;90.40;;;;;;6338922;22;20417;-79
2023/01/08 03:14:01;;;;;;;41.33;24.60;;;12.10;90.40;;;;;;6311130;22;20003;-78
2023/01/08 03:16:33;;;;;;;37.80;24.38;;;12.10;90.40;;;;;;6338097;22;20005;-78
2023/01/08 03:19:07;;;;;;;38.33;23.50;;;12.10;90.40;;;;;;6338535;22;19995;-79
2023/01/08 03:21:34;;;;;;;38.92;24.45;;;12.10;90.30;;;;;;6338436;22;20306;-79
2023/01/08 03:24:02;;;;;;;38.70;24.13;;;12.10;90.30;;;;;;6338874;22;20002;-79
2023/01/08 03:26:31;;;;;;;43.75;26.48;;;12.10;90.30;;;;;;6338806;22;20056;-79
2023/01/08 03:28:57;;;;;;;37.78;23.70;;;12.10;90.40;;;;;;6310947;22;20439;-79
2023/01/08 03:31:26;;;;;;;36.58;23.95;;;12.10;90.40;;;;;;6338147;22;20005;-79
2023/01/08 03:33:53;;;;;;;37.28;23.95;;;12.10;90.50;;;;;;6338467;22;20317;-79
2023/01/08 03:36:24;;;;;;;40.10;24.33;;;12.10;90.60;;;;;;6338806;22;19995;-79
2023/01/08 03:39:00;;;;;;;41.72;25.52;;;12.10;90.70;;;;;;6338633;22;20432;-78
2023/01/08 03:41:30;;;;;;;36.83;22.83;;;12.10;90.80;;;;;;6338683;22;20017;-78
2023/01/08 03:43:56;;;;;;;37.90;24.35;;;12.10;90.70;;;;;;6338551;22;20015;-78
2023/01/08 03:46:29;;;;;;;40.95;24.35;;;12.00;90.60;;;;;;6338730;22;20005;-78
2023/01/08 03:48:57;;;;;;;40.10;23.67;;;12.10;90.70;;;;;;6337903;22;19998;-78
2023/01/08 03:51:22;;;;;;;38.72;23.85;;;12.10;90.70;;;;;;6338104;22;19999;-78
2023/01/08 03:53:51;;;;;;;35.70;23.95;;;12.10;90.80;;;;;;6338723;22;20363;-78
2023/01/08 03:56:18;;;;;;;42.70;24.35;;;12.10;90.80;;;;;;6338307;22;19999;-78
2023/01/08 03:58:44;;;;;;;38.25;23.83;;;12.10;90.80;;;;;;6311144;22;20454;-79
2023/01/08 04:01:09;;;;;;;40.00;25.23;;;12.10;90.80;;;;;;6337948;22;20002;-78
2023/01/08 04:03:35;;;;;;;38.08;23.90;;;12.10;90.80;;;;;;6338377;22;19999;-78
2023/01/08 04:06:01;;;;;;;41.90;25.02;;;12.10;90.80;;;;;;6338425;22;19995;-78
2023/01/08 04:08:27;;;;;;;40.25;24.58;;;12.10;90.80;;;;;;6338424;22;20002;-78
2023/01/08 04:10:52;;;;;;;39.03;24.02;;;12.10;90.70;;;;;;6338208;22;20031;-78
2023/01/08 04:13:18;;;;;;;38.35;24.52;;;12.10;90.60;;;;;;6338407;22;19999;-79
2023/01/08 04:15:50;;;;;;;39.50;24.02;;;12.10;90.60;;;;;;6338322;22;20051;-79
2023/01/08 04:18:17;;;;;;;40.13;24.98;;;12.10;90.60;;;;;;6338655;22;20064;-79
2023/01/08 04:20:46;;;;;;;42.67;25.77;;;12.10;90.80;;;;;;6310745;22;20007;-79
2023/01/08 04:23:12;;;;;;;38.03;22.63;;;12.00;90.50;;;;;;6338330;22;20021;-78
2023/01/08 04:25:38;;;;;;;43.38;25.65;;;12.10;90.50;;;;;;6338121;22;20477;-78
2023/01/08 04:28:04;;;;;;;39.38;24.20;;;12.00;90.60;;;;;;6337561;22;20037;-78
2023/01/08 04:30:31;;;;;;;39.08;25.17;;;12.00;90.60;;;;;;6339664;22;20002;-78
2023/01/08 04:32:57;;;;;;;39.00;25.50;;;12.00;90.70;;;;;;6339586;22;20008;-78
2023/01/08 04:35:22;;;;;;;38.17;23.02;;;12.00;90.80;;;;;;6339913;22;20026;-79
2023/01/08 04:37:48;;;;;;;41.22;25.35;;;12.00;90.90;;;;;;6339501;22;20331;-78
2023/01/08 04:40:14;;;;;;;38.60;24.23;;;12.00;90.90;;;;;;6339887;22;20006;-78
2023/01/08 04:42:40;;;;;;;42.92;25.23;;;12.00;90.90;;;;;;6339582;22;20011;-78
2023/01/08 04:45:06;;;;;;;40.92;24.75;;;12.00;90.90;;;;;;6339876;22;20466;-78
2023/01/08 04:47:32;;;;;;;38.25;23.77;;;12.00;90.90;;;;;;6339615;22;19999;-78
2023/01/08 04:49:58;;;;;;;42.40;24.67;;;12.00;90.90;;;;;;6339747;22;20409;-77
2023/01/08 04:52:23;;;;;;;40.70;24.80;;;12.00;90.90;;;;;;6339858;22;19998;-78
2023/01/08 04:54:49;;;;;;;40.38;24.77;;;12.00;90.90;;;;;;6339900;22;20078;-78
2023/01/08 04:57:15;;;;;;;39.85;23.83;;;11.90;91.00;;;;;;6339439;22;20085;-78
2023/01/08 04:59:41;;;;;;;44.35;25.92;;;11.90;91.10;;;;;;6339254;22;20090;-78
2023/01/08 05:02:06;;;;;;;38.65;23.27;;;11.90;91.20;;;;;;6339520;22;20048;-78
2023/01/08 05:04:32;;;;;;;39.05;24.52;;;11.90;91.30;;;;;;6339756;22;20074;-78
2023/01/08 05:06:58;;;;;;;40.58;24.58;;;11.90;91.40;;;;;;6312345;22;20006;-77
2023/01/08 05:09:23;;;;;;;42.55;24.73;;;11.90;91.40;;;;;;6339485;22;20006;-78
2023/01/08 05:11:51;;;;;;;44.65;26.27;;;11.90;91.40;;;;;;6339955;22;20006;-77
2023/01/08 05:14:16;;;;;;;39.83;25.50;;;11.90;91.40;;;;;;6339950;22;20409;-78
2023/01/08 05:16:42;;;;;;;41.28;24.63;;;11.80;91.40;;;;;;6339617;22;20005;-78
2023/01/08 05:19:08;;;;;;;37.17;23.70;;;11.90;91.50;;;;;;6339413;22;20308;-78
2023/01/08 05:21:33;;;;;;;36.42;23.13;;;11.90;91.60;;;;;;6339630;22;19995;-77
2023/01/08 05:23:59;;;;;;;39.55;25.05;;;11.90;91.50;;;;;;6311926;22;20402;-78
2023/01/08 05:26:25;;;;;;;39.10;23.42;;;11.80;91.50;;;;;;6311849;22;20393;-78
2023/01/08 05:28:51;;;;;;;38.72;24.23;;;11.80;91.50;;;;;;6339609;22;20002;-78
2023/01/08 05:31:17;;;;;;;37.17;23.67;;;11.90;91.50;;;;;;6311386;22;20427;-78
2023/01/08 05:33:43;;;;;;;40.22;24.33;;;11.80;91.50;;;;;;6339699;22;20002;-79
2023/01/08 05:36:11;;;;;;;43.00;25.45;;;11.80;91.60;;;;;;6339495;22;20033;-78
2023/01/08 05:38:37;;;;;;;39.63;25.25;;;11.80;91.60;;;;;;6311433;22;20337;-78
2023/01/08 05:41:03;;;;;;;42.50;26.17;;;11.80;91.70;;;;;;6339860;22;20037;-78
2023/01/08 05:43:29;;;;;;;46.03;25.60;;;11.80;91.80;;;;;;6311403;22;20463;-78
2023/01/08 05:45:59;;;;;;;39.35;24.92;;;11.80;91.90;;;;;;6339523;22;20013;-78
2023/01/08 05:48:27;;;;;;;42.55;26.15;;;11.70;92.00;;;;;;6311569;22;19999;-77
2023/01/08 05:50:52;;;;;;;45.00;26.38;;;11.70;92.00;;;;;;6311654;22;20030;-79
2023/01/08 05:53:18;;;;;;;39.15;24.95;;;11.80;92.10;;;;;;6311785;22;20014;-79
2023/01/08 05:55:44;;;;;;;44.75;26.60;;;11.80;92.10;;;;;;6338887;22;20006;-79
2023/01/08 05:58:10;;;;;;;43.13;25.20;;;11.80;92.10;;;;;;6339209;22;20314;-79
2023/01/08 06:00:37;;;;;;;43.25;26.08;;;11.80;92.10;;;;;;6338576;22;19998;-78
2023/01/08 06:03:03;;;;;;;39.58;24.58;;;11.80;92.10;;;;;;6338986;22;20017;-78
2023/01/08 06:05:31;;;;;;;40.22;25.77;;;11.90;92.20;;;;;;6339022;22;20425;-78
2023/01/08 06:07:58;;;;;;;44.90;25.70;;;11.90;92.20;;;;;;6311404;22;20007;-78
2023/01/08 06:10:24;;;;;;;41.17;26.52;;;11.90;92.20;;;;;;6311633;22;20302;-79
2023/01/08 06:12:49;;;;;;;42.10;26.63;;;11.80;92.20;;;;;;6339292;22;20003;-78
2023/01/08 06:15:15;;;;;;;41.47;26.48;;;11.80;92.20;;;;;;6338901;22;20011;-78
2023/01/08 06:17:42;;;;;;;41.78;26.25;;;11.80;92.30;;;;;;6339269;22;20077;-78
2023/01/08 06:20:08;;;;;;;41.40;27.15;;;11.80;92.30;;;;;;6311624;22;20322;-78
2023/01/08 06:22:34;;;;;;;47.13;28.40;;;11.80;92.30;;;;;;6311190;22;20003;-78
2023/01/08 06:25:00;;;;;;;43.65;27.23;;;11.80;92.30;;;;;;6338967;22;20070;-79
2023/01/08 06:27:26;;;;;;;45.63;28.95;;;11.70;92.40;;;;;;6311424;22;20420;-79
2023/01/08 06:29:51;;;;;;;45.67;27.55;;;11.70;92.40;;;;;;6337963;22;19999;-78
2023/01/08 06:32:17;;;;;;;47.75;28.55;;;11.70;92.50;;;;;;6337913;22;20097;-78
2023/01/08 06:34:43;;;;;;;42.63;26.80;;;11.70;92.50;;;;;;6338875;22;20006;-78
2023/01/08 06:37:09;;;;;;;45.97;27.65;;;11.70;92.50;;;;;;6311123;22;20078;-78
2023/01/08 06:39:35;;;;;;;42.63;27.10;;;11.70;92.50;;;;;;6338468;22;20010;-78
2023/01/08 06:42:01;;;;;;;45.45;27.52;;;11.80;92.50;;;;;;6310737;22;20007;-78
2023/01/08 06:44:26;;;;;;;41.47;27.08;;;11.70;92.50;;;;;;6338226;22;20027;-79
2023/01/08 06:46:52;;;;;;;46.60;28.52;;;11.70;92.40;;;;;;6338328;22;19995;-78
2023/01/08 06:49:18;;;;;;;44.45;26.77;;;11.70;92.40;;;;;;6339054;22;19994;-78
2023/01/08 06:51:44;;;;;;;51.90;32.17;;;11.70;92.40;;;;;;6338761;22;20074;-78
2023/01/08 06:54:10;;;;;;;45.72;27.90;;;11.60;92.70;;;;;;6311170;22;20003;-79
2023/01/08 06:56:36;;;;;;;45.65;27.92;;;11.60;92.40;;;;;;6338534;22;20473;-79
2023/01/08 06:59:02;;;;;;;43.42;27.80;;;11.60;92.50;;;;;;6338751;22;20081;-78
2023/01/08 07:01:27;;;;;;;46.10;28.33;;;11.60;92.50;;;;;;6337658;22;20045;-78
2023/01/08 07:03:56;;;;;;;45.75;29.08;;;11.60;92.50;;;;;;6338248;22;20048;-79
2023/01/08 07:06:22;;;;;;;43.70;26.98;;;11.60;92.50;;;;;;6338530;22;20048;-78
2023/01/08 07:08:49;;;;;;;45.40;28.08;;;11.70;92.50;;;;;;6310774;22;20071;-79
2023/01/08 07:11:15;;;;;;;42.70;27.40;;;11.70;92.50;;;;;;6310599;22;20007;-79
2023/01/08 07:13:41;;;;;;;47.28;28.52;;;11.70;92.50;;;;;;6338523;22;20002;-79
2023/01/08 07:16:12;;;;;;;46.78;28.65;;;11.70;92.50;;;;;;6310658;22;20002;-79
2023/01/08 07:18:38;;;;;;;52.10;30.17;;;11.60;92.50;;;;;;6338818;22;20005;-79
2023/01/08 07:21:06;;;;;;;51.45;29.83;;;11.60;92.50;;;;;;6338742;22;20030;-79
2023/01/08 07:23:33;;;;;;;45.20;27.35;;;11.50;92.60;;;;;;6338293;22;19999;-79
2023/01/08 07:26:00;;;;;;;43.97;26.83;;;11.50;92.60;;;;;;6338329;22;19995;-78
2023/01/08 07:28:26;;;;;;;46.67;27.23;;;11.40;92.60;;;;;;6338344;22;20006;-78
2023/01/08 07:30:52;;;;;;;44.40;26.90;;;11.50;92.70;;;;;;6310062;22;20032;-78
2023/01/08 07:33:18;;;;;;;44.53;26.85;;;11.50;92.70;;;;;;6338465;22;20447;-78
2023/01/08 07:35:49;;;;;;;43.50;25.77;;;11.60;92.80;;;;;;6338505;22;20003;-78
2023/01/08 07:38:16;;;;;;;51.13;28.48;;;11.60;92.80;;;;;;6338063;22;20003;-77
2023/01/08 07:40:43;;;;;;;49.05;27.65;;;11.60;92.60;;;;;;6310688;22;20006;-78
2023/01/08 07:43:18;;;;;;;43.20;25.95;;;11.70;92.60;;;;;;6337941;22;20409;-70
2023/01/08 07:45:44;;;;;;;45.38;27.33;;;11.70;92.60;;;;;;6338091;22;20002;-69
2023/01/08 07:48:14;;;;;;;46.35;27.65;;;11.60;92.50;;;;;;6338680;22;19995;-77
2023/01/08 07:50:40;;;;;;;;;;;11.60;92.50;;;;;;6339073;22;20026;-77
2023/01/08 07:53:06;;;;;;;43.83;26.30;;;11.60;92.50;;;;;;6338466;22;19899;-77
2023/01/08 07:55:32;;;;;;;51.95;31.25;;;11.60;92.50;;;;;;6337542;22;19998;-77
2023/01/08 07:57:58;;;;;;;51.25;30.88;;;11.60;92.50;;;;;;6337961;22;20437;-77
2023/01/08 08:00:23;;;;;;;53.28;31.80;;;11.50;92.50;;;;;;6337962;22;20030;-77
2023/01/08 08:02:49;;;;;;;51.22;31.08;;;11.60;92.50;;;;;;6338417;22;19995;-77
2023/01/08 08:05:16;;;;;;;50.35;30.20;;;11.50;92.50;;;;;;6339831;22;20003;-77
2023/01/08 08:07:42;;;;;;;49.50;28.90;;;11.50;92.60;;;;;;6339755;22;19998;-77
2023/01/08 08:10:10;;;;;;;45.90;28.55;;;11.50;92.80;;;;;;6339862;22;20009;-76
2023/01/08 08:12:36;;;;;;;50.22;31.13;;;11.50;92.90;;;;;;6339514;22;20052;-78
2023/01/08 08:15:02;;;;;;;46.80;29.63;;;11.50;92.90;;;;;;6339845;22;20390;-80
2023/01/08 08:17:28;;;;;;;56.67;33.30;;;11.60;93.10;;;;;;6340117;22;20316;-86
2023/01/08 08:19:53;;;;;;;51.05;31.23;;;11.70;93.10;;;;;;6340054;22;20011;-82
2023/01/08 08:22:22;;;;;;;55.13;33.97;;;11.70;92.90;;;;;;6338696;22;19999;-82
2023/01/08 08:24:48;;;;;;;51.05;31.98;;;11.70;92.60;;;;;;6338619;22;20286;-82
2023/01/08 08:27:14;;;;;;;51.58;30.65;;;11.50;92.50;;;;;;6338630;22;19994;-81
2023/01/08 08:29:39;;;;;;;46.15;29.42;;;11.50;92.60;;;;;;6339819;22;20009;-82
2023/01/08 08:32:05;;;;;;;44.90;28.05;;;11.50;92.60;;;;;;6312219;22;20433;-74
2023/01/08 08:34:32;;;;;;;48.80;27.70;;;11.50;92.70;;;;;;6339762;22;20070;-73
2023/01/08 08:36:58;;;;;;;51.72;29.52;;;11.50;92.60;;;;;;6339916;22;20003;-73
2023/01/08 08:39:27;;;;;;;42.33;26.08;;;11.50;92.60;;;;;;6339752;22;20309;-73
2023/01/08 08:41:53;;;;;;;44.67;26.23;;;11.50;92.60;;;;;;6339815;22;20365;-75
2023/01/08 08:44:19;;;;;;;46.95;28.40;;;11.50;92.40;;;;;;6339581;22;19995;-73
2023/01/08 08:46:44;;;;;;;44.15;26.85;;;11.40;92.30;;;;;;6311323;22;20007;-82
2023/01/08 08:49:10;;;;;;;42.78;25.58;;;11.50;92.40;;;;;;6338705;22;20023;-81
2023/01/08 08:51:36;;;;;;;47.22;28.95;;;11.40;92.40;;;;;;6339001;22;20005;-82
2023/01/08 08:54:01;;;;;;;44.92;26.98;;;11.40;92.30;;;;;;6338777;22;20340;-82
2023/01/08 08:56:28;;;;;;;45.60;28.80;;;11.30;92.40;;;;;;6339173;22;20005;-82
2023/01/08 08:58:54;;;;;;;44.85;27.25;;;11.30;92.50;;;;;;6339240;22;20002;-82
2023/01/08 09:01:20;;;;;;;39.63;25.10;;;11.30;92.50;;;;;;6339348;22;20003;-82
2023/01/08 09:03:46;;;;;;;40.45;25.67;;;11.30;92.60;;;;;;6339450;22;20030;-81
2023/01/08 09:06:13;;;;;;;43.65;26.48;;;11.40;92.50;;;;;;6339931;22;19995;-81
2023/01/08 09:08:38;;;;;;;41.03;27.30;;;11.50;92.50;;;;;;6339714;22;20006;-81
2023/01/08 09:11:04;;;;;;;43.90;28.35;;;11.60;92.40;;;;;;6339812;22;20083;-81
2023/01/08 09:13:30;;;;;;;47.25;28.25;;;11.60;92.20;;;;;;6336324;22;20006;-82
2023/01/08 09:15:59;;;;;;;43.72;25.98;;;11.50;92.10;;;;;;6334963;22;20014;-81
2023/01/08 09:18:25;;;;;;;49.85;29.77;;;11.50;92.10;;;;;;6336914;22;20425;-80
2023/01/08 09:20:50;;;;;;;46.00;29.40;;;11.40;91.90;;;;;;6338121;22;20010;-82
2023/01/08 09:23:16;;;;;;;47.83;28.88;;;11.30;91.80;;;;;;6337407;22;19995;-81
2023/01/08 09:25:42;;;;;;;40.72;25.23;;;11.20;91.60;;;;;;6338408;22;19999;-80
2023/01/08 09:28:11;;;;;;;40.35;25.67;;;11.10;91.80;;;;;;6338344;22;20030;-81
2023/01/08 09:30:38;;;;;;;41.78;26.58;;;11.20;91.90;;;;;;6311017;22;20306;-82
2023/01/08 09:33:04;;;;;;;48.13;30.00;;;11.20;91.60;;;;;;6338120;22;19999;-79
2023/01/08 09:35:32;;;;;;;48.65;29.20;;;11.10;91.50;;;;;;6336985;22;20344;-78
2023/01/08 09:37:58;;;;;;;42.22;26.92;;;11.10;91.80;;;;;;6335060;22;20011;-81
2023/01/08 09:40:28;;;;;;;41.50;26.42;;;11.10;91.80;;;;;;6337001;22;20306;-79
2023/01/08 09:43:00;;;;;;;51.00;31.23;;;11.10;91.80;;;;;;6337723;22;20007;-79
2023/01/08 09:45:32;;;;;;;40.97;27.17;;;11.10;92.20;;;;;;6338021;22;19998;-78
2023/01/08 09:48:05;;;;;;;45.85;27.95;;;11.20;92.10;;;;;;6337785;22;20325;-79
2023/01/08 09:50:32;;;;;;;45.00;28.83;;;11.20;92.20;;;;;;6332878;22;20011;-80
2023/01/08 09:52:59;;;;;;;51.95;30.52;;;11.20;92.00;;;;;;6336298;22;19999;-73
2023/01/08 09:55:27;;;;;;;48.67;29.73;;;11.30;92.20;;;;;;6336134;22;20003;-79
2023/01/08 09:57:52;;;;;;;45.88;28.25;;;11.40;92.10;;;;;;6337941;22;20021;-80
2023/01/08 10:00:29;;;;;;;49.08;30.00;;;11.40;92.10;;;;;;6338265;22;20336;-71
2023/01/08 10:02:56;;;;;;;48.45;30.20;;;11.50;92.10;;;;;;6337601;22;20005;-72
2023/01/08 10:05:22;;;;;;;46.22;28.48;;;11.50;91.90;;;;;;6338001;22;20021;-74
2023/01/08 10:07:48;;;;;;;42.85;27.33;;;11.60;91.90;;;;;;6310141;22;20421;-71
2023/01/08 10:10:16;;;;;;;43.05;27.77;;;11.60;91.80;;;;;;6337808;22;19999;-72
2023/01/08 10:12:42;;;;;;;43.30;27.70;;;11.60;91.70;;;;;;6310037;22;20010;-70
2023/01/08 10:15:14;;;;;;;46.38;28.33;;;11.60;91.50;;;;;;6337428;22;20003;-70
2023/01/08 10:17:47;;;;;;;46.10;28.75;;;11.70;91.60;;;;;;6337730;22;20045;-71
2023/01/08 10:20:18;;;;;;;46.95;29.80;;;11.70;91.60;;;;;;6333961;22;20057;-70
2023/01/08 10:22:46;;;;;;;43.22;29.42;;;11.70;91.70;;;;;;6336809;22;20001;-70
2023/01/08 10:25:19;;;;;;;42.92;27.13;;;11.70;91.70;;;;;;6332347;22;20480;-71
2023/01/08 10:27:55;;;;;;;46.40;29.85;;;11.70;91.80;;;;;;6337512;22;20074;-71
2023/01/08 10:30:30;;;;;;;43.38;26.77;;;11.70;91.80;;;;;;6337473;22;20052;-71
2023/01/08 10:32:57;;;;;;;43.88;27.88;;;11.70;91.90;;;;;;6337484;22;20393;-71
2023/01/08 10:35:57;;;;;;;42.53;27.98;;;11.70;91.90;;;;;;6337183;22;20325;-72
2023/01/08 10:38:28;;;;;;;41.72;26.25;;;11.70;91.90;;;;;;6296885;22;20301;-79
2023/01/08 10:40:55;;;;;;;44.95;27.65;;;11.70;91.80;;;;;;6338158;22;19999;-71
2023/01/08 10:43:27;;;;;;;39.28;26.65;;;11.70;91.80;;;;;;6336726;22;20440;-71
2023/01/08 10:46:06;;;;;;;42.25;26.88;;;11.70;91.80;;;;;;6337497;22;19999;-70
2023/01/08 10:49:01;;;;;;;42.92;27.35;;;11.70;91.80;;;;;;6337782;22;19999;-71
2023/01/08 10:51:29;;;;;;;44.50;27.92;;;11.80;91.80;;;;;;6336881;22;20033;-71
2023/01/08 10:53:59;;;;;;;41.03;27.60;;;11.70;91.90;;;;;;6337029;22;20025;-71
2023/01/08 10:56:39;;;;;;;43.17;26.75;;;11.70;91.90;;;;;;6336659;22;19998;-71
2023/01/08 10:59:04;;;;;;;42.67;27.85;;;11.80;91.90;;;;;;6309836;22;20029;-71
2023/01/08 11:01:31;;;;;;;46.83;28.90;;;11.80;92.00;;;;;;6337372;22;20003;-70
2023/01/08 11:04:03;;;;;;;58.63;33.88;;;11.80;92.00;;;;;;6337397;22;19998;-71
2023/01/08 11:06:38;;;;;;;44.53;28.73;;;11.80;92.00;;;;;;6309435;22;19998;-71
2023/01/08 11:09:15;;;;;;;49.80;30.08;;;11.70;92.00;;;;;;6338024;22;20458;-71
2023/01/08 11:11:41;;;;;;;45.45;29.05;;;11.70;92.10;;;;;;6337871;22;20003;-71
2023/01/08 11:14:21;;;;;;;44.65;27.92;;;11.70;92.20;;;;;;6337327;22;20003;-71
2023/01/08 11:16:47;;;;;;;45.92;27.98;;;11.70;92.30;;;;;;6336907;22;20037;-71
2023/01/08 11:19:21;;;;;;;48.05;29.33;;;11.70;92.30;;;;;;6308986;22;20034;-71
2023/01/08 11:22:07;;;;;;;45.30;28.48;;;11.70;92.40;;;;;;6308713;22;20041;-71
2023/01/08 11:24:41;;;;;;;43.05;27.48;;;11.70;92.40;;;;;;6337407;22;19999;-76
2023/01/08 11:27:21;;;;;;;44.00;28.30;;;11.80;92.40;;;;;;6337371;22;20003;-71
2023/01/08 11:30:02;;;;;;;48.13;29.90;;;11.80;92.50;;;;;;6337378;22;20003;-71
2023/01/08 11:32:46;;;;;;;46.42;29.98;;;11.80;92.40;;;;;;6337481;22;20417;-71
2023/01/08 11:35:28;;;;;;;44.08;28.20;;;11.80;92.40;;;;;;6309355;22;20056;-71
2023/01/08 11:38:00;;;;;;;43.95;29.38;;;11.80;92.40;;;;;;6338241;22;19999;-78
2023/01/08 11:40:48;;;;;;;42.47;28.23;;;11.80;92.50;;;;;;6312090;22;20003;-79
2023/01/08 11:43:19;;;;;;;47.47;28.98;;;11.80;92.60;;;;;;6311294;22;20441;-79
2023/01/08 11:46:12;;;;;;;49.55;31.33;;;11.90;92.60;;;;;;6338741;22;19999;-80
2023/01/08 11:48:59;;;;;;;54.03;31.98;;;11.80;92.50;;;;;;6339189;22;20002;-80
2023/01/08 11:51:43;;;;;;;45.30;27.73;;;11.80;92.50;;;;;;6338840;22;20093;-79
2023/01/08 11:54:37;;;;;;;48.63;29.33;;;11.80;92.50;;;;;;6338451;22;20003;-79
2023/01/08 11:57:27;;;;;;;47.90;29.50;;;11.80;92.60;;;;;;6337276;22;20389;-79
2023/01/08 12:00:28;;;;;;;44.97;28.02;;;11.80;92.60;;;;;;6337727;22;19999;-79
2023/01/08 12:02:58;;;;;;;46.72;28.80;;;11.80;92.60;;;;;;6311045;22;20412;-79
2023/01/08 12:05:29;;;;;;;43.95;28.45;;;11.80;92.60;;;;;;6309777;22;20003;-79
2023/01/08 12:07:58;;;;;;;56.40;34.58;;;11.80;92.60;;;;;;6338285;22;20013;-79
2023/01/08 12:10:38;;;;;;;45.20;29.50;;;11.70;92.70;;;;;;6338703;22;20007;-79
2023/01/08 12:13:23;;;;;;;46.10;28.83;;;11.70;92.70;;;;;;6338422;22;20003;-79
2023/01/08 12:15:49;;;;;;;46.22;29.45;;;11.70;92.70;;;;;;6338045;22;20007;-79
2023/01/08 12:18:39;;;;;;;51.97;30.73;;;11.80;92.80;;;;;;6338356;22;20356;-79
2023/01/08 12:21:40;;;;;;;47.42;28.98;;;11.80;92.80;;;;;;6310905;22;20006;-79
2023/01/08 12:24:36;;;;;;;44.22;28.30;;;11.80;93.00;;;;;;6204693;23;20132;-79
2023/01/08 12:27:25;;;;;;;46.88;29.60;;;11.80;92.80;;;;;;6309853;22;20081;-80
2023/01/08 12:30:14;;;;;;;45.90;28.98;;;11.80;92.80;;;;;;6307124;22;20019;-81
2023/01/08 12:33:00;;;;;;;47.25;28.83;;;11.80;93.00;;;;;;6335749;22;20007;-77
2023/01/08 12:35:31;;;;;;;46.45;29.42;;;11.80;92.80;;;;;;6334899;22;20030;-77
2023/01/08 12:38:12;;;;;;;47.15;30.17;;;11.90;92.80;;;;;;6334466;22;20006;-78
2023/01/08 12:41:07;;;;;;;51.33;30.45;;;11.80;92.80;;;;;;6307702;22;20350;-78
2023/01/08 12:43:42;;;;;;;52.15;31.92;;;11.80;92.80;;;;;;6327938;22;20054;-78